Time;durP1;ratioP1;P1;durP2;ratioP2;P2;SDS_P1;SDS_P2;PMS_P1;PMS_P2;Temp;Humidity;BMP_temperature;BMP_pressure;BME280_temperature;BME280_humidity;BME280_pressure;Samples;Min_cycle;Max_cycle;Signal;HPM_P1;HPM_P2
2023/01/30 00:01:37;;;;;;;35.35;19.08;;;;;;;;;;5093134;28;20042;-66
2023/01/30 00:04:03;;;;;;;38.10;19.77;;;;;;;;;;5092909;28;20069;-66
2023/01/30 00:06:29;;;;;;;36.38;18.13;;;;;;;;;;5093042;28;20069;-65
2023/01/30 00:08:56;;;;;;;35.05;17.23;;;;;;;;;;5093115;28;20035;-66
2023/01/30 00:11:22;;;;;;;36.15;17.92;;;;;;;;;;5093120;28;20027;-66
2023/01/30 00:13:49;;;;;;;36.33;18.95;;;;;;;;;;5093029;28;20497;-66
2023/01/30 00:16:16;;;;;;;30.15;16.35;;;;;;;;;;5092866;28;20373;-67
2023/01/30 00:18:43;;;;;;;36.53;18.98;;;;;;;;;;5092734;28;20020;-67
2023/01/30 00:21:11;;;;;;;32.70;17.00;;;;;;;;;;5092892;28;20028;-66
2023/01/30 00:23:37;;;;;;;29.83;15.85;;;;;;;;;;5092747;28;20501;-67
2023/01/30 00:26:05;;;;;;;33.40;17.27;;;;;;;;;;5092753;28;20510;-67
2023/01/30 00:28:31;;;;;;;31.73;16.40;;;;;;;;;;5092627;28;20042;-67
2023/01/30 00:30:57;;;;;;;42.20;20.23;;;;;;;;;;5092489;28;20028;-66
2023/01/30 00:33:24;;;;;;;26.75;14.57;;;;;;;;;;5092326;28;20028;-67
2023/01/30 00:35:52;;;;;;;38.40;18.50;;;;;;;;;;5092779;28;20032;-67
2023/01/30 00:38:18;;;;;;;31.77;16.73;;;;;;;;;;5092396;28;20032;-66
2023/01/30 00:40:46;;;;;;;38.15;18.83;;;;;;;;;;5092829;28;20024;-66
2023/01/30 00:48:43;;;;;;;31.58;16.77;;;;;;;;;;5092399;28;20020;-66
2023/01/30 00:51:09;;;;;;;34.67;17.77;;;;;;;;;;5092398;28;20028;-66
2023/01/30 00:53:35;;;;;;;34.45;17.85;;;;;;;;;;5092454;28;20024;-67
2023/01/30 00:56:02;;;;;;;35.10;19.05;;;;;;;;;;5092333;28;20023;-66
2023/01/30 00:58:28;;;;;;;34.47;18.25;;;;;;;;;;5092146;28;20028;-66
2023/01/30 01:00:55;;;;;;;31.63;16.70;;;;;;;;;;5092244;28;20028;-66
2023/01/30 01:03:21;;;;;;;34.20;18.15;;;;;;;;;;5092266;28;20492;-66
2023/01/30 01:05:47;;;;;;;33.70;17.80;;;;;;;;;;5090856;28;20480;-66
2023/01/30 01:08:14;;;;;;;32.92;16.40;;;;;;;;;;5092491;28;20028;-66
2023/01/30 01:10:40;;;;;;;32.40;16.60;;;;;;;;;;5092472;28;20027;-66
2023/01/30 01:13:09;;;;;;;29.83;16.50;;;;;;;;;;5092096;28;20020;-67
2023/01/30 01:15:35;;;;;;;36.70;19.02;;;;;;;;;;5092061;28;20054;-67
2023/01/30 01:18:02;;;;;;;37.40;18.55;;;;;;;;;;5090951;28;20393;-66
2023/01/30 01:20:28;;;;;;;33.63;17.42;;;;;;;;;;5092311;28;20038;-66
2023/01/30 01:22:55;;;;;;;34.15;17.30;;;;;;;;;;5092215;28;20024;-67
2023/01/30 01:25:22;;;;;;;32.20;17.27;;;;;;;;;;5092311;28;20031;-67
2023/01/30 01:27:49;;;;;;;38.42;18.17;;;;;;;;;;5091853;28;20462;-66
2023/01/30 01:30:15;;;;;;;32.17;16.58;;;;;;;;;;5091755;28;20080;-67
2023/01/30 01:32:42;;;;;;;30.50;15.80;;;;;;;;;;5090719;28;20028;-66
2023/01/30 01:35:08;;;;;;;31.73;16.77;;;;;;;;;;5092164;28;20032;-67
2023/01/30 01:37:35;;;;;;;28.73;14.57;;;;;;;;;;5092046;28;20038;-66
2023/01/30 01:42:46;;;;;;;27.40;15.10;;;;;;;;;;5091736;28;20032;-66
2023/01/30 01:45:17;;;;;;;28.15;14.27;;;;;;;;;;5091559;28;20028;-67
2023/01/30 01:47:43;;;;;;;32.70;14.90;;;;;;;;;;5091741;28;20040;-67
2023/01/30 01:50:13;;;;;;;24.27;13.15;;;;;;;;;;5091808;28;20020;-67
2023/01/30 01:52:40;;;;;;;30.27;15.02;;;;;;;;;;5095945;28;20042;-67
2023/01/30 01:55:06;;;;;;;29.67;14.52;;;;;;;;;;5095662;28;20016;-66
2023/01/30 01:57:39;;;;;;;24.77;13.35;;;;;;;;;;5094200;28;20043;-67
2023/01/30 02:00:16;;;;;;;27.42;13.18;;;;;;;;;;5095327;28;20024;-67
2023/01/30 02:02:44;;;;;;;25.08;13.90;;;;;;;;;;5095529;28;20030;-66
2023/01/30 02:05:12;;;;;;;27.10;14.82;;;;;;;;;;5095794;28;20058;-67
2023/01/30 02:07:45;;;;;;;23.35;13.05;;;;;;;;;;5095293;28;20044;-66
2023/01/30 02:10:15;;;;;;;27.05;14.40;;;;;;;;;;5095237;28;20027;-67
2023/01/30 02:12:41;;;;;;;28.45;14.93;;;;;;;;;;5095403;28;20032;-66
2023/01/30 02:15:08;;;;;;;31.75;15.93;;;;;;;;;;5094837;28;20024;-66
2023/01/30 02:17:34;;;;;;;32.08;17.27;;;;;;;;;;5095126;28;20097;-66
2023/01/30 02:20:10;;;;;;;35.33;18.48;;;;;;;;;;5095177;28;20024;-67
2023/01/30 02:22:39;;;;;;;31.85;16.33;;;;;;;;;;5095063;28;20407;-65
2023/01/30 02:25:23;;;;;;;33.58;17.88;;;;;;;;;;5095291;28;20036;-67
2023/01/30 02:28:08;;;;;;;37.10;18.02;;;;;;;;;;5114052;28;20479;-67
2023/01/30 02:30:37;;;;;;;30.33;16.58;;;;;;;;;;5115196;28;20026;-67
2023/01/30 02:33:07;;;;;;;31.05;15.88;;;;;;;;;;5115289;28;20030;-67
2023/01/30 02:35:51;;;;;;;29.00;16.45;;;;;;;;;;5115164;28;20357;-67
2023/01/30 02:38:17;;;;;;;29.65;15.50;;;;;;;;;;5115080;28;20030;-67
2023/01/30 02:41:02;;;;;;;26.90;15.50;;;;;;;;;;5115321;28;20030;-66
2023/01/30 02:43:34;;;;;;;29.63;15.35;;;;;;;;;;5114603;28;20491;-67
2023/01/30 02:46:13;;;;;;;27.23;14.90;;;;;;;;;;5115089;27;20034;-67
2023/01/30 02:48:45;;;;;;;25.83;13.95;;;;;;;;;;5115174;28;20394;-67
2023/01/30 02:51:22;;;;;;;29.15;14.95;;;;;;;;;;5114952;28;20020;-67
2023/01/30 02:53:49;;;;;;;32.38;14.77;;;;;;;;;;5114688;28;20502;-67
2023/01/30 02:56:16;;;;;;;31.10;15.32;;;;;;;;;;5100331;28;20419;-67
2023/01/30 02:58:46;;;;;;;27.08;14.93;;;;;;;;;;5094110;28;20024;-67
2023/01/30 03:01:16;;;;;;;28.40;14.43;;;;;;;;;;5094194;28;20024;-67
2023/01/30 03:03:42;;;;;;;27.75;15.63;;;;;;;;;;5094365;28;20096;-67
2023/01/30 03:06:20;;;;;;;29.00;14.55;;;;;;;;;;5094393;28;20034;-67
2023/01/30 03:09:07;;;;;;;31.15;15.82;;;;;;;;;;5094380;28;20024;-67
2023/01/30 03:11:59;;;;;;;28.70;15.75;;;;;;;;;;5093790;28;20027;-67
2023/01/30 03:14:28;;;;;;;25.83;14.43;;;;;;;;;;5091386;28;20044;-67
2023/01/30 03:16:56;;;;;;;33.08;16.42;;;;;;;;;;5093936;28;20403;-66
2023/01/30 03:19:22;;;;;;;30.05;14.65;;;;;;;;;;5094060;28;20500;-67
2023/01/30 03:21:49;;;;;;;27.02;15.13;;;;;;;;;;5094213;28;20020;-66
2023/01/30 03:24:16;;;;;;;30.33;15.95;;;;;;;;;;5093846;28;20499;-67
2023/01/30 03:26:48;;;;;;;26.58;14.50;;;;;;;;;;5093824;28;20495;-67
2023/01/30 03:29:14;;;;;;;29.30;15.27;;;;;;;;;;5093727;28;20523;-67
2023/01/30 03:31:41;;;;;;;25.50;14.15;;;;;;;;;;5093656;28;20024;-67
2023/01/30 03:34:07;;;;;;;27.10;14.93;;;;;;;;;;5093709;28;20425;-67
2023/01/30 03:36:33;;;;;;;30.20;16.00;;;;;;;;;;5093702;28;20024;-67
2023/01/30 03:39:00;;;;;;;28.13;14.35;;;;;;;;;;5093869;28;20016;-67
2023/01/30 03:41:26;;;;;;;26.13;15.30;;;;;;;;;;5093316;28;20448;-67
2023/01/30 03:43:52;;;;;;;28.98;15.13;;;;;;;;;;5093329;28;20145;-66
2023/01/30 03:46:19;;;;;;;29.48;16.20;;;;;;;;;;5093404;28;20043;-67
2023/01/30 03:48:45;;;;;;;30.75;16.02;;;;;;;;;;5093501;28;20032;-67
2023/01/30 03:51:11;;;;;;;27.58;15.40;;;;;;;;;;5093529;28;20016;-67
2023/01/30 03:53:37;;;;;;;28.42;15.30;;;;;;;;;;5093171;28;20016;-67
2023/01/30 03:56:04;;;;;;;29.88;14.77;;;;;;;;;;5092827;28;20020;-67
2023/01/30 03:58:30;;;;;;;30.02;16.50;;;;;;;;;;5093712;28;20042;-67
2023/01/30 04:00:56;;;;;;;31.33;15.85;;;;;;;;;;5093119;28;20036;-67
2023/01/30 04:03:23;;;;;;;31.15;15.52;;;;;;;;;;5092912;28;20473;-67
2023/01/30 04:05:49;;;;;;;32.63;17.02;;;;;;;;;;5093436;28;20024;-67
2023/01/30 04:08:16;;;;;;;31.88;17.77;;;;;;;;;;5092918;28;20040;-67
2023/01/30 04:10:42;;;;;;;31.33;17.63;;;;;;;;;;5092547;28;20018;-67
2023/01/30 04:13:08;;;;;;;34.15;17.70;;;;;;;;;;5091097;28;20027;-67
2023/01/30 04:15:35;;;;;;;33.03;17.80;;;;;;;;;;5093286;28;20012;-67
2023/01/30 04:18:01;;;;;;;33.72;17.75;;;;;;;;;;5092714;28;20399;-67
2023/01/30 04:20:27;;;;;;;36.90;18.33;;;;;;;;;;5093013;28;20515;-67
2023/01/30 04:22:55;;;;;;;30.38;17.60;;;;;;;;;;5092559;28;20019;-67
2023/01/30 04:25:21;;;;;;;34.05;17.85;;;;;;;;;;5092469;28;20030;-67
2023/01/30 04:27:47;;;;;;;31.70;17.38;;;;;;;;;;5092682;28;20035;-67
2023/01/30 04:30:14;;;;;;;32.05;17.27;;;;;;;;;;5092589;28;20442;-67
2023/01/30 04:32:40;;;;;;;33.65;17.25;;;;;;;;;;5091681;28;20030;-67
2023/01/30 04:35:07;;;;;;;31.75;16.67;;;;;;;;;;5092475;28;20022;-67
2023/01/30 04:37:33;;;;;;;30.42;17.38;;;;;;;;;;5092677;28;20028;-67
2023/01/30 04:39:59;;;;;;;30.88;15.90;;;;;;;;;;5092478;28;20027;-67
2023/01/30 04:42:25;;;;;;;31.30;16.92;;;;;;;;;;5092437;28;20016;-66
2023/01/30 04:44:52;;;;;;;33.60;17.17;;;;;;;;;;5092434;28;20491;-67
2023/01/30 04:47:18;;;;;;;33.30;17.52;;;;;;;;;;5092566;28;20032;-67
2023/01/30 04:49:44;;;;;;;33.15;17.67;;;;;;;;;;5092410;28;20514;-66
2023/01/30 04:52:11;;;;;;;32.55;18.08;;;;;;;;;;5092156;28;20044;-67
2023/01/30 04:54:37;;;;;;;34.80;18.15;;;;;;;;;;5092044;28;20022;-67
2023/01/30 04:57:03;;;;;;;35.85;18.67;;;;;;;;;;5092111;28;20047;-67
2023/01/30 04:59:30;;;;;;;33.53;17.80;;;;;;;;;;5090979;28;20028;-67
2023/01/30 05:01:56;;;;;;;33.55;17.55;;;;;;;;;;5092227;28;20419;-67
2023/01/30 05:04:23;;;;;;;31.92;16.98;;;;;;;;;;5092194;28;20016;-67
2023/01/30 05:06:49;;;;;;;29.30;16.00;;;;;;;;;;5091091;28;20028;-67
2023/01/30 05:09:15;;;;;;;31.90;16.60;;;;;;;;;;5091681;28;20022;-66
2023/01/30 05:11:42;;;;;;;30.58;15.95;;;;;;;;;;5091930;28;20389;-67
2023/01/30 05:14:08;;;;;;;32.85;16.75;;;;;;;;;;5092463;28;20040;-67
2023/01/30 05:16:34;;;;;;;31.98;16.30;;;;;;;;;;5092192;28;20026;-67
2023/01/30 05:19:01;;;;;;;33.45;16.35;;;;;;;;;;5091987;28;20022;-67
2023/01/30 05:21:27;;;;;;;40.53;19.05;;;;;;;;;;5092059;28;20030;-67
2023/01/30 05:23:54;;;;;;;36.92;17.50;;;;;;;;;;5091612;28;20016;-67
2023/01/30 05:26:21;;;;;;;33.35;17.60;;;;;;;;;;5095462;28;20072;-67
2023/01/30 05:28:54;;;;;;;34.92;17.92;;;;;;;;;;5096341;28;20034;-67
2023/01/30 05:31:20;;;;;;;32.08;17.73;;;;;;;;;;5094840;28;20027;-67
2023/01/30 05:33:51;;;;;;;32.10;17.88;;;;;;;;;;5095920;28;20024;-67
2023/01/30 05:36:18;;;;;;;31.02;16.30;;;;;;;;;;5095562;28;20028;-65
2023/01/30 05:38:45;;;;;;;31.20;16.42;;;;;;;;;;5096016;28;20488;-66
2023/01/30 05:41:12;;;;;;;32.53;17.27;;;;;;;;;;5096211;28;20028;-66
2023/01/30 05:43:38;;;;;;;32.65;15.80;;;;;;;;;;5095822;28;20530;-67
2023/01/30 05:46:05;;;;;;;37.80;18.70;;;;;;;;;;5096036;28;20032;-67
2023/01/30 05:48:32;;;;;;;33.70;18.33;;;;;;;;;;5095680;28;20073;-66
2023/01/30 05:50:59;;;;;;;33.47;18.15;;;;;;;;;;5095683;28;20024;-67
2023/01/30 05:53:30;;;;;;;39.58;19.88;;;;;;;;;;5095977;28;20027;-67
2023/01/30 05:55:57;;;;;;;35.22;19.55;;;;;;;;;;5095268;28;20024;-66
2023/01/30 05:58:24;;;;;;;33.30;18.23;;;;;;;;;;5095512;28;20031;-67
2023/01/30 06:00:50;;;;;;;35.05;17.60;;;;;;;;;;5095600;28;20032;-67
2023/01/30 06:03:17;;;;;;;30.77;17.20;;;;;;;;;;5095458;28;20020;-67
2023/01/30 06:05:43;;;;;;;34.55;18.63;;;;;;;;;;5095373;28;20036;-67
2023/01/30 06:08:09;;;;;;;30.40;18.15;;;;;;;;;;5095321;28;20399;-67
2023/01/30 06:10:36;;;;;;;29.95;17.08;;;;;;;;;;5094334;28;20036;-67
2023/01/30 06:13:02;;;;;;;33.05;17.35;;;;;;;;;;5095217;28;20028;-67
2023/01/30 06:15:29;;;;;;;31.85;18.73;;;;;;;;;;5095288;28;20036;-67
2023/01/30 06:17:55;;;;;;;31.33;17.73;;;;;;;;;;5095147;28;20038;-67
2023/01/30 06:20:21;;;;;;;31.00;16.10;;;;;;;;;;5094678;28;20016;-67
2023/01/30 06:22:48;;;;;;;31.60;16.02;;;;;;;;;;5095053;28;20032;-67
2023/01/30 06:25:14;;;;;;;31.30;16.65;;;;;;;;;;5094964;28;20534;-67
2023/01/30 06:27:42;;;;;;;29.30;15.93;;;;;;;;;;5094643;28;20047;-69
2023/01/30 06:30:09;;;;;;;34.08;17.83;;;;;;;;;;5094975;28;20205;-69
2023/01/30 06:32:35;;;;;;;34.05;19.08;;;;;;;;;;5094792;28;20028;-69
2023/01/30 06:35:01;;;;;;;29.33;16.67;;;;;;;;;;5094398;28;20032;-69
2023/01/30 06:37:28;;;;;;;32.08;16.48;;;;;;;;;;5093993;28;20484;-69
2023/01/30 06:39:54;;;;;;;28.40;16.50;;;;;;;;;;5095052;28;20032;-69
2023/01/30 06:42:20;;;;;;;33.13;17.00;;;;;;;;;;5094650;28;20029;-67
2023/01/30 06:44:46;;;;;;;37.45;19.17;;;;;;;;;;5094669;28;20444;-67
2023/01/30 06:47:13;;;;;;;34.63;18.65;;;;;;;;;;5094735;28;20042;-67
2023/01/30 06:49:39;;;;;;;43.33;22.00;;;;;;;;;;5094249;28;20035;-67
2023/01/30 06:52:05;;;;;;;39.65;20.83;;;;;;;;;;5094186;28;20046;-67
2023/01/30 06:54:32;;;;;;;43.42;21.40;;;;;;;;;;5094610;28;20028;-67
2023/01/30 06:56:58;;;;;;;35.47;18.73;;;;;;;;;;5093084;28;20044;-67
2023/01/30 06:59:24;;;;;;;42.25;19.85;;;;;;;;;;5094191;28;20024;-67
2023/01/30 07:01:50;;;;;;;42.17;19.95;;;;;;;;;;5093816;28;20030;-67
2023/01/30 07:04:17;;;;;;;43.60;20.10;;;;;;;;;;5093953;28;20051;-67
2023/01/30 07:06:44;;;;;;;41.65;21.08;;;;;;;;;;5093327;28;20506;-67
2023/01/30 07:09:11;;;;;;;45.00;21.95;;;;;;;;;;5093922;28;20042;-67
2023/01/30 07:11:37;;;;;;;40.08;21.45;;;;;;;;;;5093805;28;20391;-67
2023/01/30 07:14:03;;;;;;;43.58;21.20;;;;;;;;;;5093086;28;20030;-67
2023/01/30 07:16:30;;;;;;;44.28;22.45;;;;;;;;;;5090991;28;20028;-66
2023/01/30 07:18:57;;;;;;;42.42;21.23;;;;;;;;;;5092838;28;20034;-68
2023/01/30 07:21:24;;;;;;;43.85;21.13;;;;;;;;;;5092561;28;20030;-68
2023/01/30 07:23:50;;;;;;;39.80;19.92;;;;;;;;;;5093059;28;20034;-67
2023/01/30 07:26:17;;;;;;;71.53;26.65;;;;;;;;;;5093329;28;20036;-67
2023/01/30 07:28:43;;;;;;;79.03;30.50;;;;;;;;;;5093846;28;20024;-67
2023/01/30 07:31:09;;;;;;;106.63;42.65;;;;;;;;;;5092601;28;20016;-67
2023/01/30 07:33:36;;;;;;;56.08;27.38;;;;;;;;;;5092941;28;20032;-67
2023/01/30 07:36:02;;;;;;;70.57;31.52;;;;;;;;;;5088585;28;20038;-67
2023/01/30 07:38:28;;;;;;;109.93;45.88;;;;;;;;;;5101395;28;20497;-68
2023/01/30 07:40:57;;;;;;;69.78;33.25;;;;;;;;;;5086874;28;20024;-67
2023/01/30 07:43:23;;;;;;;70.05;34.17;;;;;;;;;;5091915;28;20028;-67
2023/01/30 07:45:50;;;;;;;59.03;31.25;;;;;;;;;;5093146;28;20038;-67
2023/01/30 07:48:17;;;;;;;69.70;32.95;;;;;;;;;;5091289;28;20058;-67
2023/01/30 07:50:44;;;;;;;55.58;28.50;;;;;;;;;;5090421;28;20020;-67
2023/01/30 07:53:11;;;;;;;54.95;27.80;;;;;;;;;;5092622;28;20030;-68
2023/01/30 07:55:37;;;;;;;57.55;29.30;;;;;;;;;;5091982;28;20024;-68
2023/01/30 07:58:04;;;;;;;53.78;27.38;;;;;;;;;;5091976;28;20047;-67
2023/01/30 08:00:30;;;;;;;53.65;27.13;;;;;;;;;;5090389;28;20388;-68
2023/01/30 08:02:57;;;;;;;55.85;30.13;;;;;;;;;;5091536;28;20050;-68
2023/01/30 08:05:23;;;;;;;52.25;27.67;;;;;;;;;;5091956;28;20016;-67
2023/01/30 08:07:49;;;;;;;54.45;28.08;;;;;;;;;;5090728;28;20097;-67
2023/01/30 08:10:16;;;;;;;57.05;29.88;;;;;;;;;;5091997;28;20031;-67
2023/01/30 08:12:42;;;;;;;81.47;36.60;;;;;;;;;;5087513;28;20042;-67
2023/01/30 08:15:09;;;;;;;62.28;30.70;;;;;;;;;;5090488;28;20028;-67
2023/01/30 08:17:35;;;;;;;68.60;33.97;;;;;;;;;;5090345;28;20081;-68
2023/01/30 08:20:01;;;;;;;78.80;37.28;;;;;;;;;;5090941;28;20475;-71
2023/01/30 08:22:28;;;;;;;69.43;33.58;;;;;;;;;;5091151;28;20034;-72
2023/01/30 08:24:54;;;;;;;66.15;31.80;;;;;;;;;;5090603;28;20073;-71
2023/01/30 08:27:20;;;;;;;79.05;36.42;;;;;;;;;;5089759;28;20503;-71
2023/01/30 08:29:47;;;;;;;67.90;33.30;;;;;;;;;;5090337;28;20028;-71
2023/01/30 08:32:13;;;;;;;64.35;31.88;;;;;;;;;;5089519;28;20020;-71
2023/01/30 08:34:39;;;;;;;58.75;28.70;;;;;;;;;;5090977;28;20456;-71
2023/01/30 08:37:06;;;;;;;59.92;29.40;;;;;;;;;;5090590;28;20020;-71
2023/01/30 08:39:32;;;;;;;57.92;30.50;;;;;;;;;;5090699;28;20030;-71
2023/01/30 08:41:58;;;;;;;63.90;31.27;;;;;;;;;;5089229;28;20032;-71
2023/01/30 08:44:25;;;;;;;55.30;29.63;;;;;;;;;;5090901;28;20023;-71
2023/01/30 08:46:51;;;;;;;66.78;29.50;;;;;;;;;;5090589;28;20032;-71
2023/01/30 08:49:17;;;;;;;58.70;29.00;;;;;;;;;;5090592;28;20031;-71
2023/01/30 08:51:44;;;;;;;79.35;36.05;;;;;;;;;;5090823;28;20028;-70
2023/01/30 08:54:10;;;;;;;53.08;26.75;;;;;;;;;;5090429;28;20048;-70
2023/01/30 08:56:36;;;;;;;51.38;25.42;;;;;;;;;;5089870;28;20040;-71
2023/01/30 08:59:03;;;;;;;50.42;24.92;;;;;;;;;;5088103;28;20038;-70
2023/01/30 09:01:29;;;;;;;49.22;26.13;;;;;;;;;;5089800;28;20024;-70
2023/01/30 09:03:56;;;;;;;49.17;27.05;;;;;;;;;;5090825;28;20040;-71
2023/01/30 09:06:22;;;;;;;40.45;21.45;;;;;;;;;;5090586;28;20023;-71
2023/01/30 09:08:49;;;;;;;24.85;13.90;;;;;;;;;;5091010;28;20526;-71
2023/01/30 09:11:15;;;;;;;21.77;12.85;;;;;;;;;;5091111;28;20023;-71
2023/01/30 09:13:42;;;;;;;19.90;11.02;;;;;;;;;;5089260;28;20474;-71
2023/01/30 09:16:09;;;;;;;14.93;9.23;;;;;;;;;;5088440;28;20028;-71
2023/01/30 09:18:43;;;;;;;15.38;8.98;;;;;;;;;;5090546;28;20035;-71
2023/01/30 09:21:10;;;;;;;15.63;8.68;;;;;;;;;;5089174;28;20028;-71
2023/01/30 09:23:37;;;;;;;14.00;8.45;;;;;;;;;;5090437;28;20038;-71
2023/01/30 09:26:04;;;;;;;13.20;9.10;;;;;;;;;;5090157;28;20024;-71
2023/01/30 09:28:30;;;;;;;15.60;8.73;;;;;;;;;;5089726;28;20050;-71
2023/01/30 09:30:57;;;;;;;13.98;9.02;;;;;;;;;;5090500;28;20031;-71
2023/01/30 09:33:24;;;;;;;16.13;8.73;;;;;;;;;;5090846;28;20040;-71
2023/01/30 09:35:50;;;;;;;14.25;9.20;;;;;;;;;;5090758;28;20030;-71
2023/01/30 09:38:17;;;;;;;12.10;8.43;;;;;;;;;;5089927;28;20024;-71
2023/01/30 09:40:52;;;;;;;11.48;8.65;;;;;;;;;;5090835;28;20024;-71
2023/01/30 09:43:30;;;;;;;11.63;8.48;;;;;;;;;;5090173;28;20030;-71
2023/01/30 09:46:03;;;;;;;13.88;7.47;;;;;;;;;;5090719;28;20028;-71
2023/01/30 09:48:32;;;;;;;12.52;8.43;;;;;;;;;;5090243;28;20440;-71
2023/01/30 09:51:17;;;;;;;11.27;8.57;;;;;;;;;;5090125;28;20377;-71
2023/01/30 09:54:01;;;;;;;11.25;8.02;;;;;;;;;;5089241;28;20105;-71
2023/01/30 09:56:28;;;;;;;10.68;7.80;;;;;;;;;;5090105;28;20042;-71
2023/01/30 09:58:56;;;;;;;14.40;8.02;;;;;;;;;;5089283;28;20028;-71
2023/01/30 10:01:41;;;;;;;12.27;8.57;;;;;;;;;;5089900;28;20034;-71
2023/01/30 10:04:27;;;;;;;11.70;8.32;;;;;;;;;;5090641;28;20009;-70
2023/01/30 10:07:12;;;;;;;13.85;8.45;;;;;;;;;;5089414;28;20036;-70
2023/01/30 10:09:53;;;;;;;11.43;8.10;;;;;;;;;;5090043;28;20084;-70
2023/01/30 10:12:29;;;;;;;10.88;7.90;;;;;;;;;;5090790;28;20038;-70
2023/01/30 10:15:02;;;;;;;11.80;8.75;;;;;;;;;;5093909;28;20032;-70
2023/01/30 10:17:28;;;;;;;15.98;8.63;;;;;;;;;;5082244;28;20031;-70
2023/01/30 10:20:01;;;;;;;11.63;8.02;;;;;;;;;;5091462;28;20038;-71
2023/01/30 10:22:48;;;;;;;11.32;7.72;;;;;;;;;;5093479;28;20026;-71
2023/01/30 10:25:30;;;;;;;12.55;8.35;;;;;;;;;;5093211;28;20030;-71
2023/01/30 10:28:01;;;;;;;14.55;8.70;;;;;;;;;;5078640;28;20046;-71
2023/01/30 10:30:27;;;;;;;11.13;8.30;;;;;;;;;;5092831;28;20031;-71
2023/01/30 10:32:59;;;;;;;11.35;8.07;;;;;;;;;;5092548;28;20403;-71
2023/01/30 10:35:29;;;;;;;10.95;8.07;;;;;;;;;;5085009;28;20032;-71
2023/01/30 10:37:56;;;;;;;9.85;7.78;;;;;;;;;;5093304;28;20039;-71
2023/01/30 10:40:43;;;;;;;10.77;8.05;;;;;;;;;;5093074;28;20040;-71
2023/01/30 10:43:10;;;;;;;15.45;9.98;;;;;;;;;;5092764;28;20020;-72
2023/01/30 10:45:59;;;;;;;17.08;9.43;;;;;;;;;;5092993;28;20046;-71
2023/01/30 10:48:26;;;;;;;10.05;7.57;;;;;;;;;;5092420;28;20036;-69
2023/01/30 10:50:54;;;;;;;11.48;8.02;;;;;;;;;;5092468;28;20084;-70
2023/01/30 10:53:20;;;;;;;10.65;7.90;;;;;;;;;;5092799;28;20472;-71
2023/01/30 10:56:00;;;;;;;12.80;8.68;;;;;;;;;;5091718;28;20087;-71
2023/01/30 10:58:33;;;;;;;9.98;7.90;;;;;;;;;;5092552;28;20028;-71
2023/01/30 11:01:01;;;;;;;13.18;9.10;;;;;;;;;;5092015;28;20046;-71
2023/01/30 11:03:46;;;;;;;15.10;8.55;;;;;;;;;;5092795;28;20038;-71
2023/01/30 11:06:16;;;;;;;12.48;9.10;;;;;;;;;;5092503;28;20024;-70
2023/01/30 11:08:43;;;;;;;13.35;8.07;;;;;;;;;;5092753;28;20492;-70
2023/01/30 11:11:25;;;;;;;11.13;8.35;;;;;;;;;;5092204;28;20039;-71
2023/01/30 11:14:00;;;;;;;10.90;8.10;;;;;;;;;;5092959;28;20040;-70
2023/01/30 11:16:26;;;;;;;10.88;8.07;;;;;;;;;;5092640;28;20040;-70
2023/01/30 11:18:53;;;;;;;11.85;8.68;;;;;;;;;;5092540;28;20020;-70
2023/01/30 11:21:19;;;;;;;10.80;8.30;;;;;;;;;;5092819;28;20034;-71
2023/01/30 11:23:45;;;;;;;10.45;8.00;;;;;;;;;;5092676;28;20028;-71
2023/01/30 11:26:23;;;;;;;11.07;8.48;;;;;;;;;;5092358;28;20506;-71
2023/01/30 11:28:49;;;;;;;10.70;8.27;;;;;;;;;;5092512;28;20050;-71
2023/01/30 11:31:20;;;;;;;13.50;8.77;;;;;;;;;;5092733;28;20073;-70
2023/01/30 11:33:58;;;;;;;11.45;8.38;;;;;;;;;;5092169;28;20042;-70
2023/01/30 11:36:29;;;;;;;10.45;8.25;;;;;;;;;;5092520;28;20039;-71
2023/01/30 11:38:57;;;;;;;11.35;8.93;;;;;;;;;;5091900;28;20024;-71
2023/01/30 11:41:23;;;;;;;11.93;8.65;;;;;;;;;;5092355;28;20389;-71
2023/01/30 11:43:49;;;;;;;13.18;8.50;;;;;;;;;;5092340;28;20034;-71
2023/01/30 11:46:17;;;;;;;12.75;9.27;;;;;;;;;;5092121;28;20042;-71
2023/01/30 11:48:54;;;;;;;10.30;8.20;;;;;;;;;;5092430;28;20378;-71
2023/01/30 11:51:24;;;;;;;11.23;8.80;;;;;;;;;;5092296;28;20038;-71
2023/01/30 11:53:54;;;;;;;11.80;8.55;;;;;;;;;;5091722;28;20096;-71
2023/01/30 11:56:23;;;;;;;9.77;8.00;;;;;;;;;;5092141;28;20576;-71
2023/01/30 11:59:12;;;;;;;10.07;7.82;;;;;;;;;;5092258;28;20028;-71
2023/01/30 12:01:39;;;;;;;12.10;8.43;;;;;;;;;;5091880;28;20437;-71
2023/01/30 12:04:07;;;;;;;10.55;8.20;;;;;;;;;;5092255;28;20032;-71
2023/01/30 12:06:35;;;;;;;10.52;8.43;;;;;;;;;;5091117;28;20016;-71
2023/01/30 12:09:02;;;;;;;14.93;8.15;;;;;;;;;;5091147;28;20035;-71
2023/01/30 12:11:29;;;;;;;9.90;8.20;;;;;;;;;;5091066;28;20042;-70
2023/01/30 12:14:04;;;;;;;13.32;8.30;;;;;;;;;;5091758;28;20035;-69
2023/01/30 12:16:40;;;;;;;12.63;9.23;;;;;;;;;;5091126;28;20488;-68
2023/01/30 12:19:15;;;;;;;13.60;8.40;;;;;;;;;;5091692;28;20027;-70
2023/01/30 12:21:44;;;;;;;11.07;8.10;;;;;;;;;;5091340;28;20028;-70
2023/01/30 12:24:20;;;;;;;11.32;8.80;;;;;;;;;;5091311;28;20034;-70
2023/01/30 12:26:47;;;;;;;12.02;8.85;;;;;;;;;;5090590;28;20028;-69
2023/01/30 12:29:14;;;;;;;14.23;9.00;;;;;;;;;;5091310;28;20028;-70
2023/01/30 12:31:45;;;;;;;14.25;9.40;;;;;;;;;;5091319;28;20034;-69
2023/01/30 12:34:12;;;;;;;10.43;8.57;;;;;;;;;;5090895;28;20028;-68
2023/01/30 12:36:44;;;;;;;11.13;8.95;;;;;;;;;;5088225;28;20038;-70
2023/01/30 12:39:13;;;;;;;10.98;8.55;;;;;;;;;;5090170;28;20028;-69
2023/01/30 12:41:47;;;;;;;11.20;8.35;;;;;;;;;;5097227;28;20376;-70
2023/01/30 12:44:19;;;;;;;11.50;9.07;;;;;;;;;;5105738;28;20028;-70
2023/01/30 12:46:46;;;;;;;10.75;8.75;;;;;;;;;;5089502;28;20012;-70
2023/01/30 12:49:31;;;;;;;10.27;7.93;;;;;;;;;;5090519;28;20446;-70
2023/01/30 12:52:04;;;;;;;9.95;8.02;;;;;;;;;;5090863;28;20498;-70
2023/01/30 12:54:49;;;;;;;12.98;9.30;;;;;;;;;;5089718;28;20395;-70
2023/01/30 12:57:32;;;;;;;12.30;9.40;;;;;;;;;;5082997;28;20050;-70
2023/01/30 13:00:22;;;;;;;13.38;9.48;;;;;;;;;;5090400;28;20044;-68
2023/01/30 13:02:48;;;;;;;11.30;8.48;;;;;;;;;;5076496;28;20126;-70
2023/01/30 13:05:21;;;;;;;11.80;9.18;;;;;;;;;;5087993;28;20028;-70
2023/01/30 13:07:56;;;;;;;10.00;8.00;;;;;;;;;;5090060;28;20036;-70
2023/01/30 13:10:22;;;;;;;9.40;7.75;;;;;;;;;;5090621;28;20023;-69
2023/01/30 13:12:57;;;;;;;10.45;8.10;;;;;;;;;;5090503;28;20030;-70
2023/01/30 13:15:23;;;;;;;10.50;8.50;;;;;;;;;;5089259;28;20376;-69
2023/01/30 13:18:00;;;;;;;8.90;7.50;;;;;;;;;;5088795;28;20033;-70
2023/01/30 13:20:45;;;;;;;10.15;8.15;;;;;;;;;;5099225;28;20029;-69
2023/01/30 13:23:17;;;;;;;12.30;7.43;;;;;;;;;;5069994;28;20025;-70
2023/01/30 13:25:57;;;;;;;9.13;6.90;;;;;;;;;;5070112;28;20020;-70
2023/01/30 13:28:28;;;;;;;9.65;7.38;;;;;;;;;;5070187;28;20029;-70
2023/01/30 13:30:55;;;;;;;8.77;6.90;;;;;;;;;;5070166;28;20020;-70
2023/01/30 13:33:23;;;;;;;13.07;7.47;;;;;;;;;;5069941;28;20051;-70
2023/01/30 13:35:52;;;;;;;8.80;7.28;;;;;;;;;;5069597;28;20024;-68
2023/01/30 13:38:20;;;;;;;9.75;8.00;;;;;;;;;;5070010;28;20032;-69
2023/01/30 13:40:48;;;;;;;8.65;7.32;;;;;;;;;;5070095;28;20021;-70
2023/01/30 13:43:18;;;;;;;9.25;7.57;;;;;;;;;;5070370;28;20038;-69
2023/01/30 13:45:47;;;;;;;10.05;7.72;;;;;;;;;;5093369;28;20024;-70
2023/01/30 13:48:19;;;;;;;9.23;7.30;;;;;;;;;;5093022;28;20445;-69
2023/01/30 13:51:18;;;;;;;9.93;8.02;;;;;;;;;;5093853;28;20024;-69
2023/01/30 13:54:02;;;;;;;9.32;7.57;;;;;;;;;;5031314;28;20520;-69
2023/01/30 13:56:29;;;;;;;10.10;7.93;;;;;;;;;;5030786;28;20879;-70
2023/01/30 13:59:03;;;;;;;10.23;7.68;;;;;;;;;;5031406;28;20049;-70
2023/01/30 14:01:48;;;;;;;11.88;8.93;;;;;;;;;;5031154;28;20417;-70
2023/01/30 14:04:47;;;;;;;12.40;8.75;;;;;;;;;;5030918;28;20040;-70
2023/01/30 14:07:22;;;;;;;12.18;8.02;;;;;;;;;;4971954;28;20058;-70
2023/01/30 14:10:06;;;;;;;12.82;8.77;;;;;;;;;;4971538;28;20043;-69
2023/01/30 14:12:53;;;;;;;10.73;8.40;;;;;;;;;;4972412;28;20019;-70
2023/01/30 14:15:24;;;;;;;10.63;8.10;;;;;;;;;;4955755;28;20027;-70
2023/01/30 14:17:56;;;;;;;11.73;8.98;;;;;;;;;;4955918;28;20063;-70
2023/01/30 14:20:24;;;;;;;10.93;8.13;;;;;;;;;;4960486;28;20038;-69
2023/01/30 14:22:53;;;;;;;16.27;9.00;;;;;;;;;;4990580;28;20042;-70
2023/01/30 14:25:29;;;;;;;12.60;8.77;;;;;;;;;;4984175;28;20398;-70
2023/01/30 14:28:01;;;;;;;19.08;11.75;;;;;;;;;;4971708;28;20041;-70
2023/01/30 14:30:30;;;;;;;14.05;10.20;;;;;;;;;;5027709;28;20044;-70
2023/01/30 14:32:59;;;;;;;13.95;9.70;;;;;;;;;;5030208;28;20040;-69
2023/01/30 14:35:26;;;;;;;13.98;9.10;;;;;;;;;;5030573;28;20033;-69
2023/01/30 14:38:18;;;;;;;15.20;9.52;;;;;;;;;;5047912;28;20033;-70
2023/01/30 14:41:08;;;;;;;11.07;8.30;;;;;;;;;;5047845;28;20131;-70
2023/01/30 14:43:46;;;;;;;14.80;10.50;;;;;;;;;;5059565;28;20056;-70